createdAt,value
2019-01-21T00:00:50.218Z,82.24
2019-01-21T00:01:46.780Z,81.96
2019-01-21T00:02:46.864Z,82.15
2019-01-21T00:03:46.951Z,81.58
2019-01-21T00:04:47.036Z,81.68
2019-01-21T00:05:47.121Z,81.68
2019-01-21T00:06:51.178Z,81.11
2019-01-21T00:07:47.265Z,80.92
2019-01-21T00:08:47.348Z,81.11
2019-01-21T00:09:47.434Z,81.49
2019-01-21T00:10:47.518Z,81.58
2019-01-21T00:11:47.627Z,82.43
2019-01-21T00:12:51.188Z,81.96
2019-01-21T00:13:47.773Z,81.87
2019-01-21T00:14:47.854Z,82.43
2019-01-21T00:15:47.987Z,81.96
2019-01-21T00:16:48.035Z,82.06
2019-01-21T00:17:48.144Z,82.24
2019-01-21T00:18:52.169Z,81.68
2019-01-21T00:19:48.376Z,82.43
2019-01-21T00:20:48.468Z,82.62
2019-01-21T00:21:48.551Z,82.81
2019-01-21T00:22:48.630Z,81.96
2019-01-21T00:23:48.723Z,82.15
2019-01-21T00:24:52.141Z,82.15
2019-01-21T00:25:48.850Z,81.68
2019-01-21T00:26:48.935Z,82.24
2019-01-21T00:27:49.022Z,82.34
2019-01-21T00:28:49.101Z,82.53
2019-01-21T00:29:49.187Z,83.00
2019-01-21T00:30:53.126Z,82.43
2019-01-21T00:31:49.335Z,82.43
2019-01-21T00:32:49.424Z,81.87
2019-01-21T00:33:49.520Z,82.15
2019-01-21T00:34:49.604Z,81.96
2019-01-21T00:35:49.689Z,82.34
2019-01-21T00:36:53.111Z,81.87
2019-01-21T00:37:49.821Z,82.53
2019-01-21T00:38:49.903Z,82.43
2019-01-21T00:39:49.987Z,82.62
2019-01-21T00:40:50.098Z,82.81
2019-01-21T00:41:50.171Z,83.00
2019-01-21T00:42:54.113Z,83.09
2019-01-21T00:43:50.328Z,82.90
2019-01-21T00:44:50.403Z,82.90
2019-01-21T00:45:50.553Z,83.00
2019-01-21T00:46:50.641Z,82.90
2019-01-21T00:47:50.746Z,82.24
2019-01-21T00:48:54.081Z,82.43
2019-01-21T00:49:50.916Z,82.34
2019-01-21T00:50:50.997Z,82.06
2019-01-21T00:51:51.084Z,82.24
2019-01-21T00:52:51.163Z,81.68
2019-01-21T00:53:55.272Z,81.87
2019-01-21T00:54:51.356Z,81.58
2019-01-21T00:55:51.433Z,80.64
2019-01-21T00:56:51.532Z,81.02
2019-01-21T00:57:51.601Z,80.54
2019-01-21T00:58:51.689Z,80.36
2019-01-21T00:59:55.321Z,80.83
2019-01-21T01:00:51.910Z,80.26
2019-01-21T01:01:51.979Z,80.92
2019-01-21T01:02:52.067Z,80.92
2019-01-21T01:03:52.159Z,80.92
2019-01-21T01:04:52.253Z,80.83
2019-01-21T01:05:56.306Z,80.83
2019-01-21T01:06:52.444Z,81.21
2019-01-21T01:07:52.492Z,81.21
2019-01-21T01:08:52.573Z,81.21
2019-01-21T01:09:52.677Z,81.21
2019-01-21T01:10:52.760Z,81.11
2019-01-21T01:11:56.284Z,80.64
2019-01-21T01:12:52.992Z,80.64
2019-01-21T01:13:53.082Z,80.17
2019-01-21T01:14:53.157Z,81.02
2019-01-21T01:15:53.245Z,81.11
2019-01-21T01:16:53.332Z,82.53
2019-01-21T01:17:57.270Z,82.53
2019-01-21T01:18:53.492Z,83.09
2019-01-21T01:19:53.570Z,83.18
2019-01-21T01:20:53.665Z,83.09
2019-01-21T01:21:53.755Z,83.65
2019-01-21T01:22:53.843Z,83.00
2019-01-21T01:23:57.235Z,82.81
2019-01-21T01:24:54.070Z,83.18
2019-01-21T01:25:54.165Z,83.37
2019-01-21T01:26:54.250Z,83.09
2019-01-21T01:27:54.339Z,83.09
2019-01-21T01:28:58.392Z,82.71
2019-01-21T01:29:54.475Z,82.43
2019-01-21T01:30:54.566Z,82.15
2019-01-21T01:31:54.646Z,81.77
2019-01-21T01:32:54.730Z,81.68
2019-01-21T01:33:54.824Z,81.02
2019-01-21T01:34:58.380Z,81.02
2019-01-21T01:35:54.961Z,81.02
2019-01-21T01:36:55.055Z,81.30
2019-01-21T01:37:55.139Z,81.40
2019-01-21T01:38:55.224Z,81.68
2019-01-21T01:39:55.316Z,81.21
2019-01-21T01:40:59.409Z,81.02
2019-01-21T01:41:55.504Z,80.73
2019-01-21T01:42:55.586Z,80.92
2019-01-21T01:43:55.669Z,80.64
2019-01-21T01:44:55.750Z,80.83
2019-01-21T01:45:55.843Z,80.73
2019-01-21T01:46:59.381Z,80.83
2019-01-21T01:47:55.965Z,80.92
2019-01-21T01:48:56.057Z,81.21
2019-01-21T01:49:56.141Z,81.40
2019-01-21T01:50:56.224Z,81.21
2019-01-21T01:51:56.339Z,81.40
2019-01-21T01:53:00.391Z,81.49
2019-01-21T01:53:56.475Z,81.40
2019-01-21T01:54:56.559Z,80.83
2019-01-21T01:55:56.645Z,80.73
2019-01-21T01:56:56.732Z,80.64
2019-01-21T01:57:56.825Z,80.64
2019-01-21T01:59:00.352Z,79.79
2019-01-21T01:59:57.074Z,79.60
2019-01-21T02:00:57.197Z,79.69
2019-01-21T02:01:57.260Z,79.79
2019-01-21T02:02:57.343Z,80.36
2019-01-21T02:03:58.193Z,80.45
2019-01-21T02:05:01.354Z,80.51
2019-01-21T02:05:57.566Z,80.36
2019-01-21T02:06:57.646Z,80.22
2019-01-21T02:07:57.738Z,80.07
2019-01-21T02:08:57.817Z,80.36
2019-01-21T02:09:57.903Z,80.60
2019-01-21T02:11:01.333Z,79.56
2019-01-21T02:11:58.044Z,79.66
2019-01-21T02:12:58.131Z,79.56
2019-01-21T02:13:58.275Z,79.56
2019-01-21T02:14:58.295Z,80.13
2019-01-21T02:15:58.377Z,80.41
2019-01-21T02:17:02.316Z,80.88
2019-01-21T02:17:58.550Z,81.16
2019-01-21T02:18:58.664Z,81.73
2019-01-21T02:19:58.712Z,81.63
2019-01-21T02:20:58.794Z,81.16
2019-01-21T02:21:58.881Z,81.26
2019-01-21T02:23:02.285Z,81.54
2019-01-21T02:23:58.993Z,81.26
2019-01-21T02:24:59.080Z,81.92
2019-01-21T02:25:59.167Z,82.20
2019-01-21T02:26:59.245Z,82.10
2019-01-21T02:28:03.440Z,82.20
2019-01-21T02:28:59.399Z,82.10
2019-01-21T02:29:59.489Z,81.82
2019-01-21T02:30:59.576Z,82.01
2019-01-21T02:31:59.655Z,81.82
2019-01-21T02:32:59.742Z,81.63
2019-01-21T02:34:03.428Z,81.63
2019-01-21T02:34:59.887Z,82.20
2019-01-21T02:35:59.979Z,81.82
2019-01-21T02:37:00.062Z,82.29
2019-01-21T02:38:00.147Z,82.67
2019-01-21T02:39:04.618Z,82.95
2019-01-21T02:40:00.326Z,83.14
2019-01-21T02:41:00.411Z,82.76
2019-01-21T02:42:00.507Z,82.58
2019-01-21T02:43:00.580Z,82.67
2019-01-21T02:44:00.673Z,82.10
2019-01-21T02:45:04.606Z,81.92
2019-01-21T02:46:00.811Z,81.92
2019-01-21T02:47:00.900Z,81.82
2019-01-21T02:48:00.995Z,81.82
2019-01-21T02:49:01.104Z,81.73
2019-01-21T02:50:01.191Z,81.35
2019-01-21T02:51:04.587Z,80.69
2019-01-21T02:52:01.413Z,81.16
2019-01-21T02:53:01.495Z,80.79
2019-01-21T02:54:01.577Z,80.22
2019-01-21T02:55:01.689Z,80.32
2019-01-21T02:56:05.794Z,79.94
2019-01-21T02:57:01.870Z,79.56
2019-01-21T02:58:01.953Z,79.66
2019-01-21T02:59:02.038Z,79.66
2019-01-21T03:00:02.121Z,79.66
2019-01-21T03:01:02.208Z,79.85
2019-01-21T03:02:05.720Z,79.47
2019-01-21T03:03:02.427Z,79.66
2019-01-21T03:04:02.512Z,79.47
2019-01-21T03:05:02.599Z,79.75
2019-01-21T03:06:02.675Z,79.56
2019-01-21T03:07:02.774Z,79.75
2019-01-21T03:08:06.705Z,80.22
2019-01-21T03:09:02.913Z,80.32
2019-01-21T03:10:02.997Z,80.60
2019-01-21T03:11:03.078Z,81.35
2019-01-21T03:12:03.161Z,81.16
2019-01-21T03:13:03.247Z,81.82
2019-01-21T03:14:06.682Z,81.63
2019-01-21T03:15:03.390Z,82.20
2019-01-21T03:16:03.475Z,82.48
2019-01-21T03:17:03.555Z,82.58
2019-01-21T03:18:07.945Z,82.48
2019-01-21T03:19:03.738Z,82.67
2019-01-21T03:20:07.660Z,82.67
2019-01-21T03:21:03.882Z,83.05
2019-01-21T03:22:03.965Z,82.20
2019-01-21T03:23:04.046Z,81.92
2019-01-21T03:24:04.131Z,81.07
2019-01-21T03:25:04.218Z,80.60
2019-01-21T03:26:07.632Z,79.66
2019-01-21T03:27:04.339Z,79.94
2019-01-21T03:28:04.422Z,79.56
2019-01-21T03:29:04.526Z,79.94
2019-01-21T03:30:04.617Z,79.75
2019-01-21T03:31:04.697Z,79.75
2019-01-21T03:32:08.634Z,79.75
2019-01-21T03:33:04.844Z,79.56
2019-01-21T03:34:04.934Z,79.56
2019-01-21T03:35:05.013Z,79.28
2019-01-21T03:36:05.100Z,79.09
2019-01-21T03:37:05.181Z,79.66
2019-01-21T03:38:08.620Z,79.56
2019-01-21T03:39:05.327Z,79.75
2019-01-21T03:40:05.415Z,80.51
2019-01-21T03:41:05.497Z,80.88
2019-01-21T03:42:05.586Z,81.16
2019-01-21T03:43:05.666Z,81.35
2019-01-21T03:44:09.614Z,81.35
2019-01-21T03:45:05.818Z,81.35
2019-01-21T03:46:05.905Z,81.54
2019-01-21T03:47:05.988Z,81.92
2019-01-21T03:48:06.071Z,82.10
2019-01-21T03:49:06.159Z,82.20
2019-01-21T03:50:09.580Z,81.92
2019-01-21T03:51:06.287Z,81.54
2019-01-21T03:52:06.370Z,80.98
2019-01-21T03:53:06.452Z,81.35
2019-01-21T03:54:06.535Z,81.45
2019-01-21T03:55:06.633Z,81.63
2019-01-21T03:56:10.563Z,81.54
2019-01-21T03:57:06.773Z,81.82
2019-01-21T03:58:06.857Z,81.73
2019-01-21T03:59:06.941Z,81.82
2019-01-21T04:00:07.025Z,82.29
2019-01-21T04:01:07.109Z,82.48
2019-01-21T04:02:10.534Z,82.48
2019-01-21T04:03:07.252Z,82.58
2019-01-21T04:04:07.337Z,82.67
2019-01-21T04:05:07.418Z,82.48
2019-01-21T04:06:07.499Z,82.67
2019-01-21T04:07:07.590Z,82.76
2019-01-21T04:08:11.532Z,82.95
2019-01-21T04:09:07.746Z,82.62
2019-01-21T04:10:07.839Z,82.43
2019-01-21T04:11:07.922Z,82.24
2019-01-21T04:12:08.007Z,81.77
2019-01-21T04:13:08.096Z,81.96
2019-01-21T04:14:11.541Z,81.58
2019-01-21T04:15:08.236Z,81.96
2019-01-21T04:16:08.322Z,82.06
2019-01-21T04:17:08.404Z,81.30
2019-01-21T04:18:08.490Z,81.30
2019-01-21T04:19:12.661Z,81.49
2019-01-21T04:20:08.700Z,81.77
2019-01-21T04:21:08.673Z,82.34
2019-01-21T04:22:08.772Z,82.06
2019-01-21T04:23:08.842Z,82.24
2019-01-21T04:24:08.937Z,82.06
2019-01-21T04:25:12.645Z,82.53
2019-01-21T04:26:09.095Z,82.53
2019-01-21T04:27:09.178Z,82.90
2019-01-21T04:28:09.262Z,83.00
2019-01-21T04:29:09.345Z,82.34
2019-01-21T04:30:09.434Z,82.62
2019-01-21T04:31:12.620Z,82.62
2019-01-21T04:32:09.585Z,82.71
2019-01-21T04:33:09.659Z,82.53
2019-01-21T04:34:09.754Z,82.06
2019-01-21T04:35:09.844Z,82.06
2019-01-21T04:36:13.781Z,82.06
2019-01-21T04:37:10.004Z,81.68
2019-01-21T04:38:10.088Z,81.96
2019-01-21T04:39:10.172Z,82.24
2019-01-21T04:40:10.257Z,82.34
2019-01-21T04:41:13.940Z,81.87
2019-01-21T04:42:10.405Z,81.87
2019-01-21T04:43:10.488Z,82.24
2019-01-21T04:44:10.571Z,82.06
2019-01-21T04:45:10.670Z,81.87
2019-01-21T04:46:10.757Z,82.15
2019-01-21T04:47:12.902Z,82.24
2019-01-21T04:48:10.990Z,82.62
2019-01-21T04:49:11.112Z,82.34
2019-01-21T04:50:11.193Z,82.34
2019-01-21T04:51:11.284Z,82.62
2019-01-21T04:52:15.084Z,82.81
2019-01-21T04:53:11.417Z,82.81
2019-01-21T04:54:11.511Z,83.18
2019-01-21T04:55:11.594Z,83.00
2019-01-21T04:56:11.678Z,83.09
2019-01-21T04:57:11.772Z,83.00
2019-01-21T04:58:15.072Z,83.00
2019-01-21T04:59:11.913Z,83.09
2019-01-21T05:00:12.003Z,82.90
2019-01-21T05:01:12.075Z,83.00
2019-01-21T05:02:12.162Z,83.18
2019-01-21T05:03:16.232Z,82.90
2019-01-21T05:04:12.315Z,83.28
2019-01-21T05:05:12.409Z,83.37
2019-01-21T05:06:12.496Z,83.56
2019-01-21T05:07:12.573Z,83.75
2019-01-21T05:08:12.671Z,83.94
2019-01-21T05:09:16.205Z,84.03
2019-01-21T05:10:12.789Z,83.84
2019-01-21T05:11:12.876Z,83.70
2019-01-21T05:12:12.967Z,83.42
2019-01-21T05:13:13.053Z,83.51
2019-01-21T05:14:13.141Z,83.61
2019-01-21T05:15:17.186Z,83.14
2019-01-21T05:16:13.276Z,83.23
2019-01-21T05:17:13.351Z,82.95
2019-01-21T05:18:13.438Z,83.04
2019-01-21T05:19:13.532Z,82.76
2019-01-21T05:20:13.617Z,82.85
2019-01-21T05:21:17.164Z,82.76
2019-01-21T05:22:13.741Z,83.04
2019-01-21T05:23:13.829Z,83.23
2019-01-21T05:24:13.910Z,83.61
2019-01-21T05:25:13.989Z,83.80
2019-01-21T05:26:14.076Z,83.47
2019-01-21T05:27:18.159Z,83.80
2019-01-21T05:28:14.250Z,84.17
2019-01-21T05:29:14.320Z,83.89
2019-01-21T05:30:14.443Z,84.36
2019-01-21T05:31:14.547Z,84.17
2019-01-21T05:32:14.623Z,84.36
2019-01-21T05:33:18.130Z,84.36
2019-01-21T05:34:14.867Z,84.36
2019-01-21T05:35:14.953Z,84.92
2019-01-21T05:36:15.037Z,84.36
2019-01-21T05:37:15.203Z,84.45
2019-01-21T05:38:15.212Z,84.17
2019-01-21T05:39:19.122Z,84.27
2019-01-21T05:40:15.343Z,84.27
2019-01-21T05:41:15.436Z,84.74
2019-01-21T05:42:15.519Z,84.83
2019-01-21T05:43:16.692Z,84.74
2019-01-21T05:44:15.696Z,84.45
2019-01-21T05:45:19.100Z,84.08
2019-01-21T05:46:15.812Z,83.89
2019-01-21T05:47:15.893Z,83.89
2019-01-21T05:48:15.985Z,84.08
2019-01-21T05:49:16.075Z,83.89
2019-01-21T05:50:16.157Z,83.70
2019-01-21T05:51:20.122Z,83.42
2019-01-21T05:52:16.421Z,82.95
2019-01-21T05:53:16.413Z,83.33
2019-01-21T05:54:16.502Z,83.14
2019-01-21T05:55:16.624Z,82.95
2019-01-21T05:56:16.710Z,83.80
2019-01-21T05:57:20.106Z,83.14
2019-01-21T05:58:16.942Z,83.04
2019-01-21T05:59:17.031Z,82.95
2019-01-21T06:00:17.119Z,82.95
2019-01-21T06:01:17.226Z,82.85
2019-01-21T06:02:21.262Z,83.14
2019-01-21T06:03:17.391Z,83.51
2019-01-21T06:04:17.476Z,83.80
2019-01-21T06:05:17.561Z,84.27
2019-01-21T06:06:17.652Z,84.45
2019-01-21T06:07:17.741Z,83.80
2019-01-21T06:08:21.286Z,83.98
2019-01-21T06:09:17.866Z,83.80
2019-01-21T06:10:17.949Z,84.27
2019-01-21T06:11:18.034Z,84.08
2019-01-21T06:12:18.113Z,84.27
2019-01-21T06:13:18.199Z,84.27
2019-01-21T06:14:22.265Z,84.36
2019-01-21T06:15:18.349Z,84.45
2019-01-21T06:16:18.439Z,83.98
2019-01-21T06:17:18.524Z,83.89
2019-01-21T06:18:18.609Z,83.98
2019-01-21T06:19:18.705Z,84.08
2019-01-21T06:20:22.240Z,83.80
2019-01-21T06:21:18.825Z,83.61
2019-01-21T06:22:18.908Z,83.42
2019-01-21T06:23:18.999Z,83.51
2019-01-21T06:24:19.084Z,83.61
2019-01-21T06:25:19.231Z,83.70
2019-01-21T06:26:23.225Z,83.61
2019-01-21T06:27:19.494Z,83.42
2019-01-21T06:28:19.524Z,83.89
2019-01-21T06:29:19.615Z,84.08
2019-01-21T06:30:19.704Z,84.17
2019-01-21T06:31:19.814Z,84.08
2019-01-21T06:32:23.199Z,84.55
2019-01-21T06:33:20.047Z,85.02
2019-01-21T06:34:20.206Z,84.83
2019-01-21T06:35:20.213Z,84.27
2019-01-21T06:36:20.312Z,84.08
2019-01-21T06:37:24.363Z,84.17
2019-01-21T06:38:20.460Z,84.36
2019-01-21T06:39:20.550Z,84.36
2019-01-21T06:40:20.630Z,84.36
2019-01-21T06:41:20.714Z,84.27
2019-01-21T06:42:20.802Z,84.17
2019-01-21T06:43:24.353Z,84.08
2019-01-21T06:44:20.939Z,84.27
2019-01-21T06:45:21.022Z,84.45
2019-01-21T06:46:21.111Z,83.80
2019-01-21T06:47:21.195Z,83.98
2019-01-21T06:48:21.281Z,84.45
2019-01-21T06:49:25.341Z,84.08
2019-01-21T06:50:21.427Z,84.17
2019-01-21T06:51:21.512Z,83.89
2019-01-21T06:52:21.602Z,84.08
2019-01-21T06:53:21.676Z,84.27
2019-01-21T06:54:21.763Z,84.27
2019-01-21T06:55:25.327Z,85.68
2019-01-21T06:56:21.901Z,85.30
2019-01-21T06:57:21.985Z,85.30
2019-01-21T06:58:22.064Z,85.49
2019-01-21T06:59:22.152Z,84.64
2019-01-21T07:00:22.264Z,84.92
2019-01-21T07:01:26.295Z,84.55
2019-01-21T07:02:22.393Z,85.59
2019-01-21T07:03:22.462Z,84.83
2019-01-21T07:04:22.581Z,85.30
2019-01-21T07:05:22.680Z,85.11
2019-01-21T07:06:22.752Z,84.92
2019-01-21T07:07:26.279Z,84.83
2019-01-21T07:08:22.986Z,84.83
2019-01-21T07:09:23.070Z,85.59
2019-01-21T07:10:23.153Z,85.40
2019-01-21T07:11:23.236Z,84.45
2019-01-21T07:12:23.324Z,85.21
2019-01-21T07:13:27.254Z,85.02
2019-01-21T07:14:23.476Z,84.08
2019-01-21T07:15:23.568Z,84.08
2019-01-21T07:16:23.651Z,83.80
2019-01-21T07:17:23.735Z,83.61
2019-01-21T07:18:26.033Z,83.51
2019-01-21T07:19:27.257Z,83.51
2019-01-21T07:20:23.965Z,84.17
2019-01-21T07:21:24.081Z,84.45
2019-01-21T07:22:24.174Z,84.17
2019-01-21T07:23:24.295Z,84.27
2019-01-21T07:24:28.411Z,84.17
2019-01-21T07:25:24.496Z,84.17
2019-01-21T07:26:24.579Z,84.27
2019-01-21T07:27:24.663Z,84.27
2019-01-21T07:28:24.755Z,84.27
2019-01-21T07:29:24.843Z,84.27
2019-01-21T07:30:28.397Z,84.27
2019-01-21T07:31:24.984Z,84.27
2019-01-21T07:32:25.068Z,84.27
2019-01-21T07:33:25.170Z,84.17
2019-01-21T07:34:25.243Z,84.27
2019-01-21T07:35:25.339Z,84.17
2019-01-21T07:36:29.394Z,83.89
2019-01-21T07:37:25.469Z,84.08
2019-01-21T07:38:25.555Z,83.80
2019-01-21T07:39:25.639Z,84.50
2019-01-21T07:40:25.735Z,84.17
2019-01-21T07:41:25.851Z,83.98
2019-01-21T07:42:29.353Z,83.89
2019-01-21T07:43:26.063Z,83.98
2019-01-21T07:44:26.188Z,84.17
2019-01-21T07:45:26.248Z,83.84
2019-01-21T07:46:26.334Z,84.12
2019-01-21T07:47:26.421Z,84.12
2019-01-21T07:48:30.367Z,83.93
2019-01-21T07:49:26.577Z,84.12
2019-01-21T07:50:26.661Z,83.65
2019-01-21T07:51:26.745Z,83.74
2019-01-21T07:52:26.832Z,83.08
2019-01-21T07:53:26.999Z,83.27
2019-01-21T07:54:30.328Z,83.84
2019-01-21T07:55:27.159Z,83.74
2019-01-21T07:56:27.242Z,83.65
2019-01-21T07:57:27.325Z,83.74
2019-01-21T07:58:27.408Z,83.84
2019-01-21T07:59:31.502Z,83.65
2019-01-21T08:00:27.590Z,83.65
2019-01-21T08:01:27.673Z,83.93
2019-01-21T08:02:27.760Z,84.08
2019-01-21T08:03:27.874Z,83.98
2019-01-21T08:04:27.967Z,83.89
2019-01-21T08:05:31.494Z,83.84
2019-01-21T08:06:28.201Z,84.12
2019-01-21T08:07:28.285Z,84.31
2019-01-21T08:08:28.395Z,83.93
2019-01-21T08:09:28.462Z,84.22
2019-01-21T08:10:28.570Z,84.50
2019-01-21T08:11:32.481Z,83.84
2019-01-21T08:12:28.692Z,83.65
2019-01-21T08:13:28.774Z,83.74
2019-01-21T08:14:28.860Z,83.93
2019-01-21T08:15:28.987Z,84.12
2019-01-21T08:16:29.047Z,83.93
2019-01-21T08:17:33.301Z,83.93
2019-01-21T08:18:29.246Z,84.03
2019-01-21T08:19:29.331Z,83.65
2019-01-21T08:20:29.419Z,83.74
2019-01-21T08:21:29.507Z,83.46
2019-01-21T08:22:29.600Z,82.99
2019-01-21T08:23:33.513Z,83.65
2019-01-21T08:24:29.733Z,83.65
2019-01-21T08:25:29.806Z,83.84
2019-01-21T08:26:29.888Z,83.46
2019-01-21T08:27:29.977Z,83.55
2019-01-21T08:28:30.070Z,83.74
2019-01-21T08:29:33.500Z,83.55
2019-01-21T08:30:30.228Z,84.12
2019-01-21T08:31:30.311Z,84.03
2019-01-21T08:32:30.405Z,84.50
2019-01-21T08:33:30.482Z,84.12
2019-01-21T08:34:30.616Z,84.03
2019-01-21T08:35:34.510Z,84.50
2019-01-21T08:36:30.849Z,83.84
2019-01-21T08:37:30.941Z,84.12
2019-01-21T08:38:31.028Z,84.12
2019-01-21T08:39:31.113Z,83.84
2019-01-21T08:40:31.202Z,84.31
2019-01-21T08:41:34.490Z,84.12
2019-01-21T08:42:31.329Z,84.41
2019-01-21T08:43:31.411Z,84.50
2019-01-21T08:44:31.497Z,85.06
2019-01-21T08:45:31.584Z,84.41
2019-01-21T08:46:35.651Z,83.84
2019-01-21T08:47:31.747Z,83.84
2019-01-21T08:48:31.819Z,83.08
2019-01-21T08:49:31.907Z,83.17
2019-01-21T08:50:31.989Z,82.89
2019-01-21T08:51:32.077Z,82.89
2019-01-21T08:52:35.644Z,83.36
2019-01-21T08:53:32.212Z,82.99
2019-01-21T08:54:32.300Z,82.51
2019-01-21T08:55:32.411Z,82.61
2019-01-21T08:56:32.493Z,82.70
2019-01-21T08:57:32.589Z,83.36
2019-01-21T08:58:36.609Z,83.08
2019-01-21T08:59:32.821Z,83.74
2019-01-21T09:00:32.903Z,83.27
2019-01-21T09:01:32.989Z,83.08
2019-01-21T09:02:33.078Z,83.65
2019-01-21T09:03:33.159Z,83.55
2019-01-21T09:04:36.599Z,83.27
2019-01-21T09:05:33.304Z,83.17
2019-01-21T09:06:33.393Z,83.08
2019-01-21T09:07:33.492Z,82.89
2019-01-21T09:08:37.623Z,82.70
2019-01-21T09:09:33.676Z,83.08
2019-01-21T09:10:37.585Z,82.89
2019-01-21T09:11:33.797Z,82.99
2019-01-21T09:12:33.883Z,82.80
2019-01-21T09:13:33.970Z,82.80
2019-01-21T09:14:34.049Z,82.89
2019-01-21T09:15:34.137Z,82.51
2019-01-21T09:16:37.581Z,82.89
2019-01-21T09:17:34.302Z,82.32
2019-01-21T09:18:34.378Z,82.84
2019-01-21T09:19:37.374Z,81.90
2019-01-21T09:20:34.550Z,81.99
2019-01-21T09:21:34.641Z,82.37
2019-01-21T09:22:38.607Z,81.99
2019-01-21T09:23:34.824Z,81.80
2019-01-21T09:24:34.910Z,81.71
2019-01-21T09:25:34.995Z,82.09
2019-01-21T09:26:35.094Z,81.71
2019-01-21T09:27:35.187Z,81.80
2019-01-21T09:28:38.564Z,81.71
2019-01-21T09:29:35.381Z,81.99
2019-01-21T09:30:35.468Z,81.71
2019-01-21T09:31:35.553Z,81.33
2019-01-21T09:32:35.645Z,82.09
2019-01-21T09:33:39.735Z,81.99
2019-01-21T09:34:35.839Z,82.46
2019-01-21T09:35:35.938Z,81.99
2019-01-21T09:36:36.052Z,81.99
2019-01-21T09:37:36.179Z,81.80
2019-01-21T09:38:36.281Z,81.99
2019-01-21T09:39:39.671Z,81.90
2019-01-21T09:40:36.509Z,81.90
2019-01-21T09:41:36.593Z,82.18
2019-01-21T09:42:36.680Z,81.99
2019-01-21T09:43:36.764Z,82.09
2019-01-21T09:44:40.861Z,82.09
2019-01-21T09:45:36.950Z,82.75
2019-01-21T09:46:37.038Z,82.65
2019-01-21T09:47:37.127Z,82.84
2019-01-21T09:48:37.219Z,82.37
2019-01-21T09:49:43.859Z,81.90
2019-01-21T09:50:37.395Z,81.52
2019-01-21T09:51:37.480Z,81.14
2019-01-21T09:52:37.567Z,80.99
2019-01-21T09:53:37.653Z,81.04
2019-01-21T09:54:37.747Z,80.95
2019-01-21T09:55:41.028Z,79.76
2019-01-21T09:56:37.861Z,80.05
2019-01-21T09:57:37.938Z,79.95
2019-01-21T09:58:38.027Z,79.86
2019-01-21T09:59:38.113Z,80.05
2019-01-21T10:00:42.181Z,79.95
2019-01-21T10:01:38.270Z,79.76
2019-01-21T10:02:38.366Z,80.05
2019-01-21T10:03:38.438Z,80.05
2019-01-21T10:04:38.531Z,79.19
2019-01-21T10:05:38.626Z,78.72
2019-01-21T10:06:42.174Z,78.72
2019-01-21T10:07:38.745Z,79.19
2019-01-21T10:08:38.834Z,78.44
2019-01-21T10:09:38.918Z,78.44
2019-01-21T10:10:39.008Z,78.53
2019-01-21T10:11:43.335Z,79.10
2019-01-21T10:12:39.151Z,78.63
2019-01-21T10:13:39.236Z,78.16
2019-01-21T10:14:39.338Z,77.59
2019-01-21T10:15:39.408Z,78.25
2019-01-21T10:16:39.515Z,78.06
2019-01-21T10:17:43.317Z,77.59
2019-01-21T10:18:39.656Z,77.34
2019-01-21T10:19:39.736Z,77.72
2019-01-21T10:20:39.825Z,76.97
2019-01-21T10:21:39.903Z,77.06
2019-01-21T10:22:39.995Z,76.40
2019-01-21T10:23:43.317Z,76.31
2019-01-21T10:24:40.154Z,75.93
2019-01-21T10:25:40.243Z,74.88
2019-01-21T10:26:40.334Z,75.36
2019-01-21T10:27:40.417Z,75.83
2019-01-21T10:28:44.478Z,75.17
2019-01-21T10:29:40.569Z,74.41
2019-01-21T10:30:40.666Z,75.17
2019-01-21T10:31:40.754Z,75.07
2019-01-21T10:32:40.852Z,74.60
2019-01-21T10:33:40.935Z,74.88
2019-01-21T10:34:44.452Z,74.32
2019-01-21T10:35:41.185Z,74.04
2019-01-21T10:36:41.282Z,74.13
2019-01-21T10:37:41.368Z,73.94
2019-01-21T10:38:41.452Z,74.41
2019-01-21T10:39:41.549Z,74.13
2019-01-21T10:40:45.459Z,73.66
2019-01-21T10:41:41.783Z,73.09
2019-01-21T10:42:41.866Z,72.71
2019-01-21T10:43:41.957Z,72.71
2019-01-21T10:44:42.037Z,73.09
2019-01-21T10:45:42.129Z,72.80
2019-01-21T10:46:45.419Z,72.71
2019-01-21T10:47:42.267Z,72.90
2019-01-21T10:48:42.347Z,73.85
2019-01-21T10:49:42.453Z,73.47
2019-01-21T10:50:42.521Z,72.71
2019-01-21T10:51:46.580Z,72.90
2019-01-21T10:52:42.680Z,72.62
2019-01-21T10:53:42.779Z,72.80
2019-01-21T10:54:42.850Z,72.90
2019-01-21T10:55:42.936Z,72.71
2019-01-21T10:56:43.026Z,72.33
2019-01-21T10:57:46.553Z,72.43
2019-01-21T10:58:43.266Z,72.33
2019-01-21T10:59:43.352Z,72.14
2019-01-21T11:00:43.437Z,72.05
2019-01-21T11:01:43.528Z,71.77
2019-01-21T11:02:43.626Z,71.58
2019-01-21T11:03:47.532Z,71.67
2019-01-21T11:04:43.752Z,71.86
2019-01-21T11:05:43.845Z,71.67
2019-01-21T11:06:43.934Z,72.43
2019-01-21T11:07:44.022Z,72.66
2019-01-21T11:08:44.112Z,72.18
2019-01-21T11:09:47.530Z,71.90
2019-01-21T11:10:44.249Z,70.76
2019-01-21T11:11:44.345Z,71.23
2019-01-21T11:12:44.416Z,71.23
2019-01-21T11:13:44.507Z,70.95
2019-01-21T11:14:48.662Z,70.39
2019-01-21T11:15:44.636Z,69.34
2019-01-21T11:16:44.729Z,69.44
2019-01-21T11:17:44.811Z,68.96
2019-01-21T11:18:44.898Z,69.44
2019-01-21T11:19:44.989Z,69.82
2019-01-21T11:20:48.704Z,68.90
2019-01-21T11:21:45.173Z,68.43
2019-01-21T11:22:45.259Z,67.39
2019-01-21T11:23:45.347Z,67.11
2019-01-21T11:24:45.434Z,66.28
2019-01-21T11:25:45.535Z,65.34
2019-01-21T11:26:49.712Z,64.14
2019-01-21T11:27:45.704Z,62.62
2019-01-21T11:28:45.780Z,61.24
2019-01-21T11:29:45.868Z,59.27
2019-01-21T11:30:45.968Z,57.76
2019-01-21T11:31:46.064Z,56.08
2019-01-21T11:32:49.677Z,55.32
2019-01-21T11:33:46.277Z,54.66
2019-01-21T11:34:46.371Z,54.21
2019-01-21T11:35:46.465Z,53.45
2019-01-21T11:36:46.564Z,52.72
2019-01-21T11:37:50.859Z,51.67
2019-01-21T11:38:46.705Z,50.72
2019-01-21T11:39:46.802Z,50.62
2019-01-21T11:40:55.449Z,50.89
2019-01-21T11:41:47.030Z,51.26
2019-01-21T11:42:51.021Z,51.74
2019-01-21T11:43:47.241Z,51.36
2019-01-21T11:44:47.336Z,51.45
2019-01-21T11:45:47.430Z,51.83
2019-01-21T11:46:47.530Z,52.40
2019-01-21T11:47:47.628Z,51.86
2019-01-21T11:48:50.993Z,51.67
2019-01-21T11:49:47.843Z,50.91
2019-01-21T11:50:47.942Z,50.05
2019-01-21T11:51:48.039Z,49.10
2019-01-21T11:52:48.139Z,49.84
2019-01-21T11:53:52.167Z,50.70
2019-01-21T11:54:48.403Z,51.52
2019-01-21T11:55:48.467Z,51.26
2019-01-21T11:56:48.565Z,51.45
2019-01-21T11:57:48.664Z,52.12
2019-01-21T11:58:48.754Z,53.23
2019-01-21T11:59:54.772Z,54.06
2019-01-21T12:00:48.934Z,54.25
2019-01-21T12:01:49.029Z,54.53
2019-01-21T12:02:49.119Z,55.38
2019-01-21T12:03:49.215Z,55.38
2019-01-21T12:04:49.314Z,55.29
2019-01-21T12:05:53.120Z,55.67
2019-01-21T12:06:49.665Z,55.86
2019-01-21T12:07:49.714Z,56.05
2019-01-21T12:08:49.807Z,55.48
2019-01-21T12:09:49.900Z,56.71
2019-01-21T12:10:49.998Z,56.55
2019-01-21T12:11:54.107Z,55.10
2019-01-21T12:12:50.201Z,54.85
2019-01-21T12:13:50.305Z,55.32
2019-01-21T12:14:50.387Z,55.41
2019-01-21T12:15:50.491Z,55.60
2019-01-21T12:16:50.585Z,54.37
2019-01-21T12:17:54.087Z,53.33
2019-01-21T12:18:50.815Z,52.78
2019-01-21T12:19:50.911Z,52.66
2019-01-21T12:20:51.003Z,53.42
2019-01-21T12:21:51.096Z,53.52
2019-01-21T12:22:55.249Z,52.59
2019-01-21T12:23:51.344Z,52.50
2019-01-21T12:24:51.440Z,51.76
2019-01-21T12:25:51.536Z,51.64
2019-01-21T12:26:51.632Z,52.37
2019-01-21T12:27:51.740Z,52.40
2019-01-21T12:28:55.207Z,51.93
2019-01-21T12:29:51.925Z,51.57
2019-01-21T12:30:52.034Z,51.55
2019-01-21T12:31:52.139Z,51.26
2019-01-21T12:32:52.249Z,51.57
2019-01-21T12:33:56.393Z,51.01
2019-01-21T12:34:52.475Z,49.98
2019-01-21T12:35:52.576Z,48.94
2019-01-21T12:36:52.672Z,48.56
2019-01-21T12:37:52.774Z,48.49
2019-01-21T12:38:52.870Z,47.75
2019-01-21T12:39:56.454Z,46.61
2019-01-21T12:40:53.057Z,45.28
2019-01-21T12:41:53.150Z,45.21
2019-01-21T12:42:53.252Z,44.35
2019-01-21T12:43:53.351Z,43.40
2019-01-21T12:44:53.459Z,42.92
2019-01-21T12:45:57.403Z,43.21
2019-01-21T12:46:53.647Z,43.30
2019-01-21T12:47:53.735Z,43.59
2019-01-21T12:48:53.838Z,43.30
2019-01-21T12:49:53.928Z,43.68
2019-01-21T12:50:54.031Z,43.87
2019-01-21T12:51:57.387Z,43.76
2019-01-21T12:52:54.265Z,44.59
2019-01-21T12:53:54.359Z,45.23